This is the latest recevied weather packets stored in our database for station/object K5MJM. If no packets are shown the sender has not sent any weather packets the latest 10 day(s).
| Time | Temp. | Humidity | Pressure | Rain* | Wind** | Luminosity | Snow |
|---|---|---|---|---|---|---|---|
| 1777667479 | 21.11° C | 34% | 1018.5 hPa | 0 mm | - | - | - |
| 1777665677 | 21.11° C | 35% | 1019 hPa | 0 mm | - | - | - |
| 1777663879 | 21.11° C | 34% | 1019.4 hPa | 0 mm | - | - | - |
| 1777657279 | 20° C | 41% | 1020.9 hPa | 0 mm | - | - | - |
| 1777656079 | 20.56° C | 42% | 1021.1 hPa | 0 mm | - | - | - |
| 1777654879 | 18.89° C | 46% | 1020.9 hPa | 0 mm | - | - | - |
| 1777653680 | 20° C | 45% | 1021.1 hPa | 0 mm | - | - | - |
| 1777644679 | 13.89° C | 63% | 1020.6 hPa | 0 mm | - | - | - |
| 1777644099 | 13.33° C | 65% | 1020.5 hPa | 0 mm | - | - | - |
| 1777639879 | 10° C | 71% | 1020.1 hPa | 0 mm | - | - | - |
| 1777639279 | 9.44° C | 70% | 1020 hPa | 0 mm | - | - | - |
| 1777632700 | 8.89° C | 68% | 1019.3 hPa | 0 mm | - | - | - |
| 1777621879 | 10° C | 65% | 1019.6 hPa | 0 mm | - | - | - |
| 1777620699 | 10.56° C | 64% | 1019.7 hPa | 0 mm | - | - | - |
| 1777613479 | 12.22° C | 58% | 1019.9 hPa | 0 mm | - | - | - |
| 1777604478 | 15° C | 48% | 1019.1 hPa | 0 mm | - | - | - |
| 1777603878 | 15° C | 48% | 1019 hPa | 0 mm | - | - | - |
| 1777600278 | 16.11° C | 42% | 1018.1 hPa | 0 mm | - | - | - |
| 1777591277 | 19.44° C | 35% | 1016.5 hPa | 0 mm | - | - | - |
| 1777587077 | 20.56° C | 31% | 1016.3 hPa | 0 mm | - | - | - |
| 1777559500 | 13.89° C | 62% | 1020 hPa | 0 mm | - | - | - |
| 1777558879 | 12.78° C | 66% | 1019.9 hPa | 0 mm | - | - | - |
| 1777558279 | 12.22° C | 69% | 1020 hPa | 0 mm | - | - | - |
| 1777556479 | 10.56° C | 73% | 1019.8 hPa | 0 mm | - | - | - |
| 1777555879 | 10° C | 73% | 1019.7 hPa | 0 mm | - | - | - |
* Rain latest hour (hover to see other rain measurements)
** Current wind speed in m/s (hover to see current wind gust speed)